Terminal Aerodrome Forecast
Issued by NWS

Home | Current Version | Previous Version | Text Only | Print | Product List | Glossary On
Versions: 1 2 3 4 5 6 7 8 9 10 11 12
530
FTUS45 KABQ 281138
TAFGUP
TAF
KGUP 281138Z 2812/2912 05006KT P6SM SKC
     FM282100 32008KT P6SM SCT100
     FM290200 09007KT P6SM SCT100=

USA.gov is the U.S. government's official web portal to all federal, state and local government web resources and services.